Share

Whitehorse, Yukon Territory

3:58 AM PDT on April 24, 2014 (GMT -0700)
Whitehorse International (CYXY) Elev 2316 ft | 60.71 °N, 135.07 °W | Change Station

Current weather conditions updated 58 minutes ago

Light Snow
Light Snow
32 °F
Feels Like 26 °F
N
7
Wind Variable Wind from SSE
Sunrise 6:13 AM
Sunset 9:44 PM
Moon Waning Crescent

Today is forecast to be Warmer than yesterday. Cloudy with occasional flurries.

Pressure 29.71 in
Visibility 12.0 miles
Clouds Few 1000 ft
Mostly Cloudy 3000 ft
Overcast 5000 ft
Windchill 26 °F
Dew Point 28 °F
Humidity 87%
Rainfall 0.00 in
Snow Depth Not available.
UV 0 out of 16
Pollen Not available.
Air Quality Not available.
Flu Activity Not available.
METAR CYXY 241000Z 16006KT 12SM -SN FEW010 BKN030 OVC050 00/M02 A2962 RMK ST1SC4SC3 SLP061

More Conditions Fewer Conditions

Pressure 29.71 in
Visibility 12.0 miles
Clouds Few 1000 ft
Mostly Cloudy 3000 ft
Overcast 5000 ft
Windchill 26 °F
Dew Point 28 °F
Humidity 87%
Rainfall 0.00 in
Snow Depth Not available.
UV 0 out of 16
Pollen Not available.
Air Quality Not available.
Flu Activity Not available.
METAR CYXY 241000Z 16006KT 12SM -SN FEW010 BKN030 OVC050 00/M02 A2962 RMK ST1SC4SC3 SLP061

More Conditions Fewer Conditions

10-Day Weather Forecast

Almanac

Astronomy

Apr. 24, 2014 Rise Set
Actual Time 6:13 AM PDT 9:44 PM PDT
Civil Twilight 5:22 AM PDT 10:36 PM PDT
Nautical Twilight 4:07 AM PDT 11:53 PM PDT
Astronomical Twilight 2:30 AM PDT 1:25 AM PDT
Moon 4:50 AM PDT 3:54 PM PDT
Length of Visible Light 17h 13m
Length of Day
15h 30m
Tomorrow will be 5m 31s longer.
Waning Crescent, 27% of the Moon is Illuminated
Today
Waning Crescent
Apr 29
New
May 6
First Quarter
May 14
Full
May 21
Last Quarter

Yesterday's Extremes

Country Highs Country Lows

Community

  • Stacked
    Stacked
  • clouds approaching Red Sox Nation
    clouds approaching Red Sox Nation
  • Balance
    Balance
  • Nestled In
    Nestled In
  • Stunning Sunrise
    Stunning Sunrise

WunderPhotos

Upload Photos

1,704,584 photos uploaded!

WunderBlogs® & News

Nearby

Snow Depth

Not available.

Coastal Water Temperatures

Place Temperature
No Stations Reporting

Earthquake Activity

City Distance Mag. Time & Date
No recent earthquake activity has been reported nearby.
Minimum magnitude displayed is 2.5.

Nearby Weather Stations

Station Location Temp. Windchill Dew Point Humidity Wind Precip. Elev Updated Type
Hidden Valley, Whitehorse 31.5 °F 32 °F 28 °F 85% NNE  at  0.0 mph 0.00 in / hr 2139 ft 3:58 AM PDT Rapid Fire
Golden Horn Elementary / CMOS, Whitehorse 30.4 °F 30 °F 29 °F 94% ESE  at  1.0 mph 0.00 in / hr 2208 ft 3:55 AM PDT Normal

Show More Stations Show Fewer Stations

What do you think?

We're not finished. Please let us know what you like, what you don't like, and what you are still missing.